createdAt,value
2018-09-12T00:00:21.728Z,1002.81
2018-09-12T00:01:28.164Z,1002.85
2018-09-12T00:02:34.598Z,1002.86
2018-09-12T00:03:41.536Z,1002.86
2018-09-12T00:04:47.496Z,1002.83
2018-09-12T00:05:53.913Z,1002.84
2018-09-12T00:07:00.335Z,1002.83
2018-09-12T00:08:06.770Z,1002.83
2018-09-12T00:09:13.205Z,1002.82
2018-09-12T00:10:19.647Z,1002.79
2018-09-12T00:11:26.061Z,1002.79
2018-09-12T00:12:33.971Z,1002.78
2018-09-12T00:13:39.413Z,1002.81
2018-09-12T00:14:45.830Z,1002.83
2018-09-12T00:15:51.762Z,1002.81
2018-09-12T00:16:58.187Z,1002.82
2018-09-12T00:18:04.603Z,1002.80
2018-09-12T00:19:11.024Z,1002.82
2018-09-12T00:20:17.943Z,1002.82
2018-09-12T00:21:23.861Z,1002.84
2018-09-12T00:22:30.310Z,1002.85
2018-09-12T00:23:36.680Z,1002.82
2018-09-12T00:24:43.104Z,1002.79
2018-09-12T00:25:49.512Z,1002.80
2018-09-12T00:26:55.926Z,1002.75
2018-09-12T00:28:02.835Z,1002.76
2018-09-12T00:29:09.281Z,1002.79
2018-09-12T00:30:15.287Z,1002.78
2018-09-12T00:31:21.595Z,1002.75
2018-09-12T00:32:27.996Z,1002.75
2018-09-12T00:33:34.402Z,1002.74
2018-09-12T00:34:40.816Z,1002.77
2018-09-12T00:35:47.726Z,1002.73
2018-09-12T00:36:53.639Z,1002.76
2018-09-12T00:38:00.061Z,1002.77
2018-09-12T00:39:06.469Z,1002.79
2018-09-12T00:40:13.383Z,1002.73
2018-09-12T00:41:19.294Z,1002.74
2018-09-12T00:42:25.714Z,1002.76
2018-09-12T00:43:32.114Z,1002.75
2018-09-12T00:44:38.541Z,1002.75
2018-09-12T00:45:44.958Z,1002.79
2018-09-12T00:46:51.873Z,1002.72
2018-09-12T00:47:57.797Z,1002.74
2018-09-12T00:49:04.206Z,1002.75
2018-09-12T00:50:10.634Z,1002.73
2018-09-12T00:51:17.051Z,1002.69
2018-09-12T00:52:23.472Z,1002.70
2018-09-12T00:53:30.378Z,1002.70
2018-09-12T00:54:36.299Z,1002.67
2018-09-12T00:55:42.712Z,1002.67
2018-09-12T00:56:49.129Z,1002.67
2018-09-12T00:57:55.550Z,1002.65
2018-09-12T00:59:01.957Z,1002.68
2018-09-12T01:00:08.393Z,1002.71
2018-09-12T01:01:14.795Z,1002.72
2018-09-12T01:02:21.309Z,1002.70
2018-09-12T01:03:27.621Z,1002.71
2018-09-12T01:04:34.525Z,1002.75
2018-09-12T01:05:40.947Z,1002.69
2018-09-12T01:06:46.847Z,1002.68
2018-09-12T01:07:53.762Z,1002.67
2018-09-12T01:09:00.165Z,1002.69
2018-09-12T01:10:06.094Z,1002.69
2018-09-12T01:11:12.998Z,1002.71
2018-09-12T01:12:19.400Z,1002.70
2018-09-12T01:13:25.317Z,1002.73
2018-09-12T01:14:32.211Z,1002.69
2018-09-12T01:15:38.137Z,1002.74
2018-09-12T01:16:44.533Z,1002.68
2018-09-12T01:17:50.919Z,1002.66
2018-09-12T01:18:57.326Z,1002.63
2018-09-12T01:20:03.733Z,1002.63
2018-09-12T01:21:10.629Z,1002.65
2018-09-12T01:22:16.528Z,1002.61
2018-09-12T01:23:22.939Z,1002.62
2018-09-12T01:24:29.338Z,1002.57
2018-09-12T01:25:35.733Z,1002.56
2018-09-12T01:26:42.116Z,1002.58
2018-09-12T01:27:48.533Z,1002.55
2018-09-12T01:28:54.915Z,1002.54
2018-09-12T01:30:01.785Z,1002.56
2018-09-12T01:31:07.686Z,1002.51
2018-09-12T01:32:14.060Z,1002.57
2018-09-12T01:33:20.463Z,1002.55
2018-09-12T01:34:27.329Z,1002.54
2018-09-12T01:35:33.307Z,1002.55
2018-09-12T01:36:40.124Z,1002.53
2018-09-12T01:37:46.526Z,1002.50
2018-09-12T01:38:52.393Z,1002.47
2018-09-12T01:39:58.781Z,1002.49
2018-09-12T01:41:05.284Z,1002.49
2018-09-12T01:42:11.536Z,1002.51
2018-09-12T01:43:17.929Z,1002.48
2018-09-12T01:44:24.831Z,1002.49
2018-09-12T01:45:32.183Z,1002.47
2018-09-12T01:46:37.064Z,1002.49
2018-09-12T01:47:45.910Z,1002.48
2018-09-12T01:48:49.829Z,1002.48
2018-09-12T01:49:56.196Z,1002.48
2018-09-12T01:51:02.573Z,1002.43
2018-09-12T01:52:08.943Z,1002.44
2018-09-12T01:53:15.815Z,1002.43
2018-09-12T01:54:21.690Z,1002.45
2018-09-12T01:55:28.072Z,1002.46
2018-09-12T01:56:34.434Z,1002.47
2018-09-12T01:57:40.805Z,1002.48
2018-09-12T01:58:47.273Z,1002.47
2018-09-12T01:59:53.535Z,1002.46
2018-09-12T02:00:59.919Z,1002.46
2018-09-12T02:02:06.761Z,1002.45
2018-09-12T02:03:13.146Z,1002.50
2018-09-12T02:04:19.019Z,1002.49
2018-09-12T02:05:25.378Z,1002.51
2018-09-12T02:06:31.743Z,1002.52
2018-09-12T02:07:38.108Z,1002.49
2018-09-12T02:08:44.465Z,1002.51
2018-09-12T02:09:50.827Z,1002.54
2018-09-12T02:10:57.681Z,1002.52
2018-09-12T02:12:03.537Z,1002.50
2018-09-12T02:13:10.887Z,1002.53
2018-09-12T02:14:16.246Z,1002.53
2018-09-12T02:15:22.599Z,1002.47
2018-09-12T02:16:29.451Z,1002.46
2018-09-12T02:17:35.303Z,1002.49
2018-09-12T02:18:41.647Z,1002.46
2018-09-12T02:19:48.485Z,1002.44
2018-09-12T02:20:54.363Z,1002.45
2018-09-12T02:22:00.693Z,1002.44
2018-09-12T02:23:07.042Z,1002.45
2018-09-12T02:24:13.393Z,1002.46
2018-09-12T02:25:19.739Z,1002.44
2018-09-12T02:26:26.084Z,1002.41
2018-09-12T02:27:32.419Z,1002.47
2018-09-12T02:28:38.755Z,1002.47
2018-09-12T02:29:45.099Z,1002.48
2018-09-12T02:30:51.944Z,1002.44
2018-09-12T02:31:58.281Z,1002.44
2018-09-12T02:33:05.116Z,1002.43
2018-09-12T02:34:10.469Z,1002.44
2018-09-12T02:35:16.796Z,1002.45
2018-09-12T02:36:23.139Z,1002.40
2018-09-12T02:37:29.457Z,1002.42
2018-09-12T02:38:36.295Z,1002.39
2018-09-12T02:39:42.136Z,1002.35
2018-09-12T02:40:48.460Z,1002.35
2018-09-12T02:41:54.801Z,1002.36
2018-09-12T02:43:01.132Z,1002.33
2018-09-12T02:44:07.445Z,1002.38
2018-09-12T02:45:13.776Z,1002.38
2018-09-12T02:46:20.090Z,1002.36
2018-09-12T02:47:26.912Z,1002.34
2018-09-12T02:48:32.751Z,1002.39
2018-09-12T02:49:39.060Z,1002.44
2018-09-12T02:50:46.379Z,1002.40
2018-09-12T02:51:51.706Z,1002.40
2018-09-12T02:52:58.503Z,1002.43
2018-09-12T02:54:04.341Z,1002.41
2018-09-12T02:55:11.136Z,1002.46
2018-09-12T02:56:16.975Z,1002.40
2018-09-12T02:57:23.285Z,1002.42
2018-09-12T02:58:30.086Z,1002.46
2018-09-12T02:59:36.396Z,1002.42
2018-09-12T03:00:42.694Z,1002.41
2018-09-12T03:01:48.518Z,1002.43
2018-09-12T03:02:54.808Z,1002.42
2018-09-12T03:04:01.121Z,1002.45
2018-09-12T03:05:07.928Z,1002.42
2018-09-12T03:06:14.240Z,1002.45
2018-09-12T03:07:20.585Z,1002.41
2018-09-12T03:08:26.342Z,1002.39
2018-09-12T03:09:33.129Z,1002.40
2018-09-12T03:10:39.452Z,1002.36
2018-09-12T03:11:45.246Z,1002.38
2018-09-12T03:12:51.552Z,1002.36
2018-09-12T03:13:58.332Z,1002.32
2018-09-12T03:15:04.126Z,1002.30
2018-09-12T03:16:10.937Z,1002.29
2018-09-12T03:17:16.726Z,1002.33
2018-09-12T03:18:23.025Z,1002.34
2018-09-12T03:19:29.313Z,1002.33
2018-09-12T03:20:35.678Z,1002.34
2018-09-12T03:21:41.904Z,1002.32
2018-09-12T03:22:48.688Z,1002.32
2018-09-12T03:23:54.476Z,1002.30
2018-09-12T03:25:01.773Z,1002.33
2018-09-12T03:26:07.066Z,1002.40
2018-09-12T03:27:13.858Z,1002.33
2018-09-12T03:28:19.637Z,1002.36
2018-09-12T03:29:25.926Z,1002.32
2018-09-12T03:30:32.224Z,1002.29
2018-09-12T03:31:38.523Z,1002.32
2018-09-12T03:32:44.787Z,1002.30
2018-09-12T03:33:51.082Z,1002.32
2018-09-12T03:34:57.856Z,1002.29
2018-09-12T03:36:03.643Z,1002.23
2018-09-12T03:37:09.935Z,1002.23
2018-09-12T03:38:16.211Z,1002.20
2018-09-12T03:39:22.977Z,1002.18
2018-09-12T03:40:28.772Z,1002.18
2018-09-12T03:41:35.057Z,1002.20
2018-09-12T03:42:41.830Z,1002.15
2018-09-12T03:43:47.609Z,1002.12
2018-09-12T03:44:53.879Z,1002.09
2018-09-12T03:46:00.161Z,1002.12
2018-09-12T03:47:06.933Z,1002.10
2018-09-12T03:48:13.290Z,1002.08
2018-09-12T03:49:18.993Z,1002.12
2018-09-12T03:50:25.759Z,1002.11
2018-09-12T03:51:31.545Z,1002.10
2018-09-12T03:52:38.315Z,1002.08
2018-09-12T03:53:44.086Z,1002.09
2018-09-12T03:54:50.360Z,1002.09
2018-09-12T03:55:56.615Z,1002.10
2018-09-12T03:57:02.900Z,1002.10
2018-09-12T03:58:10.658Z,1002.10
2018-09-12T03:59:16.934Z,1002.07
2018-09-12T04:00:21.705Z,1002.07
2018-09-12T04:01:28.478Z,1002.07
2018-09-12T04:02:34.750Z,1002.08
2018-09-12T04:03:40.508Z,1002.13
2018-09-12T04:04:47.272Z,1002.10
2018-09-12T04:05:53.043Z,1002.12
2018-09-12T04:06:59.307Z,1002.16
2018-09-12T04:08:06.053Z,1002.14
2018-09-12T04:09:11.825Z,1002.17
2018-09-12T04:10:18.091Z,1002.14
2018-09-12T04:11:24.343Z,1002.15
2018-09-12T04:12:30.613Z,1002.14
2018-09-12T04:13:37.366Z,1002.10
2018-09-12T04:14:43.626Z,1002.09
2018-09-12T04:15:49.387Z,1002.12
2018-09-12T04:16:55.808Z,1002.09
2018-09-12T04:18:02.409Z,1002.08
2018-09-12T04:19:08.283Z,1002.07
2018-09-12T04:20:14.420Z,1002.08
2018-09-12T04:21:20.694Z,1002.14
2018-09-12T04:22:27.446Z,1002.12
2018-09-12T04:23:33.205Z,1002.17
2018-09-12T04:24:39.961Z,1002.18
2018-09-12T04:25:45.710Z,1002.22
2018-09-12T04:26:51.976Z,1002.18
2018-09-12T04:27:58.721Z,1002.21
2018-09-12T04:29:04.489Z,1002.22
2018-09-12T04:30:10.741Z,1002.20
2018-09-12T04:31:17.512Z,1002.21
2018-09-12T04:32:23.249Z,1002.27
2018-09-12T04:33:29.500Z,1002.32
2018-09-12T04:34:35.750Z,1002.30
2018-09-12T04:35:42.517Z,1002.34
2018-09-12T04:36:48.752Z,1002.36
2018-09-12T04:37:54.518Z,1002.35
2018-09-12T04:39:00.766Z,1002.35
2018-09-12T04:40:07.512Z,1002.32
2018-09-12T04:41:13.283Z,1002.28
2018-09-12T04:42:20.030Z,1002.30
2018-09-12T04:43:26.274Z,1002.27
2018-09-12T04:44:32.527Z,1002.33
2018-09-12T04:45:38.299Z,1002.32
2018-09-12T04:46:45.051Z,1002.29
2018-09-12T04:47:50.830Z,1002.24
2018-09-12T04:48:57.070Z,1002.27
2018-09-12T04:50:03.841Z,1002.26
2018-09-12T04:51:10.100Z,1002.28
2018-09-12T04:52:16.367Z,1002.31
2018-09-12T04:53:22.144Z,1002.30
2018-09-12T04:54:28.432Z,1002.32
2018-09-12T04:55:35.184Z,1002.31
2018-09-12T04:56:40.948Z,1002.28
2018-09-12T04:57:47.252Z,1002.29
2018-09-12T04:58:53.488Z,1002.28
2018-09-12T05:00:00.270Z,1002.24
2018-09-12T05:01:06.047Z,1002.22
2018-09-12T05:02:12.322Z,1002.22
2018-09-12T05:03:18.593Z,1002.21
2018-09-12T05:04:25.380Z,1002.24
2018-09-12T05:05:31.146Z,1002.21
2018-09-12T05:06:37.422Z,1002.20
2018-09-12T05:07:45.188Z,1002.21
2018-09-12T05:08:50.475Z,1002.21
2018-09-12T05:09:56.245Z,1002.21
2018-09-12T05:11:02.523Z,1002.24
2018-09-12T05:12:08.808Z,1002.25
2018-09-12T05:13:15.573Z,1002.23
2018-09-12T05:14:21.837Z,1002.20
2018-09-12T05:15:27.623Z,1002.26
2018-09-12T05:16:33.938Z,1002.26
2018-09-12T05:17:40.300Z,1002.28
2018-09-12T05:18:46.484Z,1002.32
2018-09-12T05:19:53.237Z,1002.28
2018-09-12T05:20:59.037Z,1002.30
2018-09-12T05:22:05.815Z,1002.33
2018-09-12T05:23:11.628Z,1002.32
2018-09-12T05:24:18.368Z,1002.33
2018-09-12T05:25:24.692Z,1002.27
2018-09-12T05:26:30.444Z,1002.27
2018-09-12T05:27:36.752Z,1002.26
2018-09-12T05:28:43.017Z,1002.29
2018-09-12T05:29:49.297Z,1002.28
2018-09-12T05:30:56.065Z,1002.26
2018-09-12T05:32:01.868Z,1002.22
2018-09-12T05:33:08.156Z,1002.21
2018-09-12T05:34:14.938Z,1002.25
2018-09-12T05:35:21.231Z,1002.24
2018-09-12T05:36:27.071Z,1002.27
2018-09-12T05:37:33.337Z,1002.22
2018-09-12T05:38:39.590Z,1002.24
2018-09-12T05:39:46.375Z,1002.22
2018-09-12T05:40:52.656Z,1002.23
2018-09-12T05:41:58.450Z,1002.21
2018-09-12T05:43:04.753Z,1002.23
2018-09-12T05:44:11.029Z,1002.21
2018-09-12T05:45:17.822Z,1002.23
2018-09-12T05:46:23.610Z,1002.24
2018-09-12T05:47:30.399Z,1002.29
2018-09-12T05:48:36.690Z,1002.26
2018-09-12T05:49:42.500Z,1002.26
2018-09-12T05:50:49.277Z,1002.24
2018-09-12T05:51:55.070Z,1002.26
2018-09-12T05:53:01.374Z,1002.25
2018-09-12T05:54:08.277Z,1002.26
2018-09-12T05:55:14.448Z,1002.29
2018-09-12T05:56:20.751Z,1002.24
2018-09-12T05:57:27.040Z,1002.28
2018-09-12T05:58:33.345Z,1002.24
2018-09-12T05:59:39.146Z,1002.23
2018-09-12T06:00:46.052Z,1002.26
2018-09-12T06:01:52.551Z,1002.27
2018-09-12T06:02:58.541Z,1002.27
2018-09-12T06:04:05.347Z,1002.26
2018-09-12T06:05:10.652Z,1002.29
2018-09-12T06:06:16.963Z,1002.30
2018-09-12T06:07:23.837Z,1002.25
2018-09-12T06:08:29.563Z,1002.26
2018-09-12T06:09:35.861Z,1002.26
2018-09-12T06:10:42.168Z,1002.28
2018-09-12T06:11:48.471Z,1002.26
2018-09-12T06:12:55.280Z,1002.23
2018-09-12T06:14:01.093Z,1002.19
2018-09-12T06:15:07.390Z,1002.22
2018-09-12T06:16:13.694Z,1002.22
2018-09-12T06:17:20.007Z,1002.23
2018-09-12T06:18:26.843Z,1002.19
2018-09-12T06:19:33.125Z,1002.21
2018-09-12T06:20:38.943Z,1002.20
2018-09-12T06:21:45.759Z,1002.18
2018-09-12T06:22:52.078Z,1002.23
2018-09-12T06:23:57.886Z,1002.17
2018-09-12T06:25:04.701Z,1002.23
2018-09-12T06:26:11.000Z,1002.26
2018-09-12T06:27:16.844Z,1002.24
2018-09-12T06:28:23.664Z,1002.21
2018-09-12T06:29:29.474Z,1002.27
2018-09-12T06:30:36.344Z,1002.25
2018-09-12T06:31:43.115Z,1002.27
2018-09-12T06:32:48.950Z,1002.23
2018-09-12T06:33:54.770Z,1002.21
2018-09-12T06:35:01.102Z,1002.22
2018-09-12T06:36:07.919Z,1002.18
2018-09-12T06:37:13.748Z,1002.20
2018-09-12T06:38:20.158Z,1002.21
2018-09-12T06:39:26.410Z,1002.19
2018-09-12T06:40:32.759Z,1002.23
2018-09-12T06:41:39.571Z,1002.25
2018-09-12T06:42:45.416Z,1002.20
2018-09-12T06:43:52.260Z,1002.25
2018-09-12T06:44:58.590Z,1002.21
2018-09-12T06:46:04.930Z,1002.24
2018-09-12T06:47:11.280Z,1002.25
2018-09-12T06:48:17.112Z,1002.27
2018-09-12T06:49:23.957Z,1002.25
2018-09-12T06:50:30.290Z,1002.26
2018-09-12T06:51:36.138Z,1002.28
2018-09-12T06:52:42.477Z,1002.27
2018-09-12T06:53:49.345Z,1002.25
2018-09-12T06:54:55.689Z,1002.30
2018-09-12T06:56:02.000Z,1002.30
2018-09-12T06:57:07.906Z,1002.31
2018-09-12T06:58:14.748Z,1002.29
2018-09-12T06:59:21.118Z,1002.28
2018-09-12T07:00:26.975Z,1002.25
2018-09-12T07:01:33.832Z,1002.19
2018-09-12T07:02:40.183Z,1002.19
2018-09-12T07:03:46.073Z,1002.18
2018-09-12T07:04:52.913Z,1002.22
2018-09-12T07:05:59.310Z,1002.21
2018-09-12T07:07:05.139Z,1002.21
2018-09-12T07:08:13.009Z,1002.19
2018-09-12T07:09:17.936Z,1002.20
2018-09-12T07:10:24.264Z,1002.23
2018-09-12T07:11:30.638Z,1002.19
2018-09-12T07:12:37.022Z,1002.20
2018-09-12T07:13:43.391Z,1002.19
2018-09-12T07:14:49.920Z,1002.19
2018-09-12T07:15:56.147Z,1002.22
2018-09-12T07:17:02.522Z,1002.15
2018-09-12T07:18:08.906Z,1002.19
2018-09-12T07:19:15.278Z,1002.14
2018-09-12T07:20:22.164Z,1002.14
2018-09-12T07:21:28.049Z,1002.16
2018-09-12T07:22:34.452Z,1002.12
2018-09-12T07:23:40.825Z,1002.13
2018-09-12T07:24:47.273Z,1002.12
2018-09-12T07:25:54.116Z,1002.10
2018-09-12T07:27:00.000Z,1002.16
2018-09-12T07:28:07.894Z,1002.15
2018-09-12T07:29:13.321Z,1002.18
2018-09-12T07:30:19.710Z,1002.19
2018-09-12T07:31:25.588Z,1002.17
2018-09-12T07:32:32.012Z,1002.12
2018-09-12T07:33:38.409Z,1002.13
2018-09-12T07:34:44.811Z,1002.12
2018-09-12T07:35:51.259Z,1002.16
2018-09-12T07:36:58.136Z,1002.14
2018-09-12T07:38:04.055Z,1002.15
2018-09-12T07:39:10.473Z,1002.15
2018-09-12T07:40:17.377Z,1002.12
2018-09-12T07:41:23.315Z,1002.16
2018-09-12T07:42:30.235Z,1002.12
2018-09-12T07:43:36.160Z,1002.14
2018-09-12T07:44:43.086Z,1002.15
2018-09-12T07:45:49.525Z,1002.05
2018-09-12T07:46:55.459Z,1002.04
2018-09-12T07:48:02.403Z,1002.04
2018-09-12T07:49:08.383Z,1002.03
2018-09-12T07:50:14.798Z,1002.03
2018-09-12T07:51:21.248Z,1002.07
2018-09-12T07:52:27.720Z,1002.07
2018-09-12T07:53:34.277Z,1002.11
2018-09-12T07:54:40.634Z,1002.07
2018-09-12T07:55:47.092Z,1002.12
2018-09-12T07:56:53.569Z,1002.07
2018-09-12T07:58:00.045Z,1002.05
2018-09-12T07:59:06.512Z,1002.05
2018-09-12T08:00:13.612Z,1002.05
2018-09-12T08:01:19.494Z,1002.07
2018-09-12T08:02:25.991Z,1002.10
2018-09-12T08:03:32.495Z,1002.06
2018-09-12T08:04:38.995Z,1002.05
2018-09-12T08:05:45.499Z,1002.02
2018-09-12T08:06:52.005Z,1002.00
2018-09-12T08:07:59.008Z,1001.98
2018-09-12T08:09:05.038Z,1002.00
2018-09-12T08:10:12.057Z,1002.00
2018-09-12T08:11:18.078Z,1002.00
2018-09-12T08:12:25.093Z,1001.98
2018-09-12T08:13:31.126Z,1001.99
2018-09-12T08:14:37.654Z,1001.97
2018-09-12T08:15:44.195Z,1001.97
2018-09-12T08:16:50.736Z,1001.99
2018-09-12T08:17:57.756Z,1001.92
2018-09-12T08:19:03.838Z,1001.94
2018-09-12T08:20:10.852Z,1001.89
2018-09-12T08:21:17.401Z,1001.87
2018-09-12T08:22:23.465Z,1001.88
2018-09-12T08:23:30.017Z,1001.81
2018-09-12T08:24:36.573Z,1001.83
2018-09-12T08:25:43.621Z,1001.86
2018-09-12T08:26:49.751Z,1001.83
2018-09-12T08:27:56.260Z,1001.85
2018-09-12T08:29:03.300Z,1001.88
2018-09-12T08:30:09.380Z,1001.84
2018-09-12T08:31:15.948Z,1001.81
2018-09-12T08:32:22.520Z,1001.79
2018-09-12T08:33:29.100Z,1001.82
2018-09-12T08:34:36.319Z,1001.81
2018-09-12T08:35:42.237Z,1001.80
2018-09-12T08:36:49.317Z,1001.82
2018-09-12T08:37:55.410Z,1001.79
2018-09-12T08:39:01.991Z,1001.78
2018-09-12T08:40:08.573Z,1001.74
2018-09-12T08:41:15.163Z,1001.77
2018-09-12T08:42:21.816Z,1001.79
2018-09-12T08:43:28.347Z,1001.74
2018-09-12T08:44:34.936Z,1001.73
2018-09-12T08:45:41.535Z,1001.70
2018-09-12T08:46:48.139Z,1001.71
2018-09-12T08:47:56.281Z,1001.68
2018-09-12T08:49:01.844Z,1001.65
2018-09-12T08:50:07.940Z,1001.61
2018-09-12T08:51:14.539Z,1001.63
2018-09-12T08:52:21.162Z,1001.57
2018-09-12T08:53:28.279Z,1001.54
2018-09-12T08:54:34.393Z,1001.51
2018-09-12T08:55:41.013Z,1001.53
2018-09-12T08:56:47.669Z,1001.51
2018-09-12T08:57:54.254Z,1001.48
2018-09-12T08:59:01.382Z,1001.52
2018-09-12T09:00:07.598Z,1001.51
2018-09-12T09:01:14.127Z,1001.53
2018-09-12T09:02:20.760Z,1001.52
2018-09-12T09:03:27.396Z,1001.48
2018-09-12T09:04:34.015Z,1001.45
2018-09-12T09:05:40.648Z,1001.44
2018-09-12T09:06:47.279Z,1001.46
2018-09-12T09:07:54.425Z,1001.42
2018-09-12T09:09:00.576Z,1001.39
2018-09-12T09:10:07.707Z,1001.38
2018-09-12T09:11:13.866Z,1001.39
2018-09-12T09:12:20.507Z,1001.39
2018-09-12T09:13:27.167Z,1001.39
2018-09-12T09:14:33.806Z,1001.41
2018-09-12T09:15:40.456Z,1001.43
2018-09-12T09:16:47.602Z,1001.44
2018-09-12T09:17:53.760Z,1001.40
2018-09-12T09:19:00.913Z,1001.41
2018-09-12T09:20:07.073Z,1001.44
2018-09-12T09:21:14.216Z,1001.34
2018-09-12T09:22:20.391Z,1001.35
2018-09-12T09:23:27.561Z,1001.37
2018-09-12T09:24:34.224Z,1001.36
2018-09-12T09:25:40.389Z,1001.38
2018-09-12T09:26:47.053Z,1001.35
2018-09-12T09:27:53.716Z,1001.36
2018-09-12T09:29:00.397Z,1001.34
2018-09-12T09:30:07.075Z,1001.35
2018-09-12T09:31:13.746Z,1001.36
2018-09-12T09:32:20.420Z,1001.31
2018-09-12T09:33:27.105Z,1001.28
2018-09-12T09:34:33.789Z,1001.30
2018-09-12T09:35:40.592Z,1001.27
2018-09-12T09:36:47.158Z,1001.24
2018-09-12T09:37:53.842Z,1001.22
2018-09-12T09:39:00.545Z,1001.21
2018-09-12T09:40:07.220Z,1001.16
2018-09-12T09:41:14.413Z,1001.15
2018-09-12T09:42:21.566Z,1001.14
2018-09-12T09:43:27.313Z,1001.15
2018-09-12T09:44:34.019Z,1001.09
2018-09-12T09:45:40.717Z,1001.09
2018-09-12T09:46:47.433Z,1001.09
2018-09-12T09:47:54.172Z,1001.06
2018-09-12T09:49:00.832Z,1001.06
2018-09-12T09:50:07.544Z,1001.03
2018-09-12T09:51:14.254Z,1001.07
2018-09-12T09:52:20.968Z,1001.05
2018-09-12T09:53:27.698Z,1001.05
2018-09-12T09:54:34.921Z,1000.96
2018-09-12T09:55:41.616Z,1001.00
2018-09-12T09:56:47.864Z,1001.00
2018-09-12T09:57:54.575Z,1001.00
2018-09-12T09:59:01.310Z,1001.03
2018-09-12T10:00:08.028Z,1000.88
2018-09-12T10:01:14.753Z,1000.96
2018-09-12T10:02:21.495Z,1000.94
2018-09-12T10:03:28.236Z,1000.86
2018-09-12T10:04:34.963Z,1000.90
2018-09-12T10:05:41.691Z,1000.93
2018-09-12T10:06:48.430Z,1000.86
2018-09-12T10:07:55.157Z,1000.81
2018-09-12T10:09:01.910Z,1000.83
2018-09-12T10:10:09.651Z,1000.88
2018-09-12T10:11:15.418Z,1000.78
2018-09-12T10:12:22.144Z,1000.78
2018-09-12T10:13:28.896Z,1000.79
2018-09-12T10:14:35.649Z,1000.73
2018-09-12T10:15:42.395Z,1000.77
2018-09-12T10:16:49.159Z,1000.74
2018-09-12T10:17:55.910Z,1000.81
2018-09-12T10:19:02.678Z,1000.77
2018-09-12T10:20:09.432Z,1000.78
2018-09-12T10:21:16.198Z,1000.77
2018-09-12T10:22:22.969Z,1000.79
2018-09-12T10:23:30.272Z,1000.80
2018-09-12T10:24:37.438Z,1000.74
2018-09-12T10:25:43.269Z,1000.69
2018-09-12T10:26:50.036Z,1000.64
2018-09-12T10:27:56.822Z,1000.67
2018-09-12T10:29:03.616Z,1000.59
2018-09-12T10:30:10.389Z,1000.65
2018-09-12T10:31:17.173Z,1000.56
2018-09-12T10:32:23.953Z,1000.58
2018-09-12T10:33:30.742Z,1000.58
2018-09-12T10:34:37.535Z,1000.58
2018-09-12T10:35:44.321Z,1000.54
2018-09-12T10:36:51.611Z,1000.53
2018-09-12T10:37:58.240Z,1000.55
2018-09-12T10:39:04.726Z,1000.51
2018-09-12T10:40:11.530Z,1000.52
2018-09-12T10:41:18.330Z,1000.56
2018-09-12T10:42:25.140Z,1000.47
2018-09-12T10:43:32.437Z,1000.44
2018-09-12T10:44:38.767Z,1000.40
2018-09-12T10:45:45.556Z,1000.42
2018-09-12T10:46:52.371Z,1000.38
2018-09-12T10:47:59.187Z,1000.38
2018-09-12T10:49:05.996Z,1000.33
2018-09-12T10:50:13.300Z,1000.36
2018-09-12T10:51:19.628Z,1000.34
2018-09-12T10:52:26.433Z,1000.29
2018-09-12T10:53:33.252Z,1000.27
2018-09-12T10:54:40.073Z,1000.29
2018-09-12T10:55:47.203Z,1000.30
2018-09-12T10:56:53.722Z,1000.35
2018-09-12T10:58:00.551Z,1000.38
2018-09-12T10:59:07.437Z,1000.25
2018-09-12T11:00:14.212Z,1000.28
2018-09-12T11:01:21.086Z,1000.28
2018-09-12T11:02:27.872Z,1000.22
2018-09-12T11:03:34.749Z,1000.31
2018-09-12T11:04:41.560Z,1000.22
2018-09-12T11:05:48.380Z,1000.22
2018-09-12T11:06:55.225Z,1000.26
2018-09-12T11:08:02.057Z,1000.24
2018-09-12T11:09:09.395Z,1000.24
2018-09-12T11:10:15.752Z,1000.26
2018-09-12T11:11:22.593Z,1000.26
2018-09-12T11:12:29.434Z,1000.30
2018-09-12T11:13:36.281Z,1000.27
2018-09-12T11:14:43.142Z,1000.25
2018-09-12T11:15:50.987Z,1000.26
2018-09-12T11:16:56.837Z,1000.23
2018-09-12T11:18:03.711Z,1000.24
2018-09-12T11:19:10.582Z,1000.18
2018-09-12T11:20:17.466Z,1000.18
2018-09-12T11:21:24.350Z,1000.17
2018-09-12T11:22:34.222Z,1000.12
2018-09-12T11:23:39.298Z,1000.18
2018-09-12T11:24:45.307Z,1000.14
2018-09-12T11:25:52.364Z,1000.10
2018-09-12T11:26:59.462Z,1000.15
2018-09-12T11:28:06.590Z,1000.11
2018-09-12T11:29:13.762Z,1000.11
2018-09-12T11:30:20.954Z,1000.10
2018-09-12T11:31:28.277Z,1000.09
2018-09-12T11:32:35.422Z,1000.10
2018-09-12T11:33:42.689Z,1000.08
2018-09-12T11:34:50.008Z,1000.05
2018-09-12T11:35:57.799Z,1000.06
2018-09-12T11:37:04.649Z,1000.07
2018-09-12T11:38:12.012Z,1000.04
2018-09-12T11:39:19.362Z,1000.01
2018-09-12T11:40:26.777Z,999.98
2018-09-12T11:41:34.282Z,1000.03
2018-09-12T11:42:41.601Z,999.97
2018-09-12T11:43:49.046Z,999.99
2018-09-12T11:44:57.000Z,999.99
2018-09-12T11:46:03.962Z,999.98
2018-09-12T11:47:11.441Z,1000.00
2018-09-12T11:48:18.928Z,999.95
2018-09-12T11:49:26.438Z,999.91
2018-09-12T11:50:33.958Z,999.93
2018-09-12T11:51:41.478Z,999.91
2018-09-12T11:52:48.997Z,999.95
2018-09-12T11:53:56.534Z,999.96
2018-09-12T11:55:04.071Z,999.86
2018-09-12T11:56:11.621Z,999.87
2018-09-12T11:57:19.168Z,999.79
2018-09-12T11:58:26.717Z,999.83
2018-09-12T11:59:34.313Z,999.78
2018-09-12T12:00:41.865Z,999.67
2018-09-12T12:01:49.437Z,999.69
2018-09-12T12:02:57.010Z,999.71
2018-09-12T12:04:04.606Z,999.73
2018-09-12T12:05:12.209Z,999.76
2018-09-12T12:06:20.293Z,999.78
2018-09-12T12:07:27.421Z,999.72
2018-09-12T12:08:35.048Z,999.68
2018-09-12T12:09:42.738Z,999.70
2018-09-12T12:10:50.284Z,999.71
2018-09-12T12:11:57.907Z,999.72
2018-09-12T12:13:06.550Z,999.70
2018-09-12T12:14:13.208Z,999.63
2018-09-12T12:15:20.916Z,999.69
2018-09-12T12:16:28.519Z,999.61
2018-09-12T12:17:37.651Z,999.66
2018-09-12T12:18:43.844Z,999.72
2018-09-12T12:19:51.514Z,999.68
2018-09-12T12:20:59.190Z,999.65
2018-09-12T12:22:06.880Z,999.61
2018-09-12T12:23:14.638Z,999.64
2018-09-12T12:24:22.242Z,999.56
2018-09-12T12:25:29.937Z,999.57
2018-09-12T12:26:37.610Z,999.64
2018-09-12T12:27:45.286Z,999.60
2018-09-12T12:28:52.974Z,999.64
2018-09-12T12:30:00.658Z,999.67
2018-09-12T12:31:08.325Z,999.62
2018-09-12T12:32:16.029Z,999.57
2018-09-12T12:33:23.693Z,999.52
2018-09-12T12:34:31.373Z,999.47
2018-09-12T12:35:39.052Z,999.48
2018-09-12T12:36:46.747Z,999.45
2018-09-12T12:37:54.441Z,999.45
2018-09-12T12:39:02.127Z,999.47
2018-09-12T12:40:09.841Z,999.49
2018-09-12T12:41:17.596Z,999.45
2018-09-12T12:42:25.237Z,999.47
2018-09-12T12:43:32.952Z,999.46
2018-09-12T12:44:40.666Z,999.48
2018-09-12T12:45:48.881Z,999.41
2018-09-12T12:46:56.101Z,999.39
2018-09-12T12:48:03.833Z,999.36
2018-09-12T12:49:11.582Z,999.36
2018-09-12T12:50:19.814Z,999.36
2018-09-12T12:51:27.052Z,999.37
2018-09-12T12:52:34.794Z,999.33
2018-09-12T12:53:42.525Z,999.32
2018-09-12T12:54:50.261Z,999.33
2018-09-12T12:55:57.993Z,999.32
2018-09-12T12:57:05.724Z,999.32
2018-09-12T12:58:13.441Z,999.32
2018-09-12T12:59:21.666Z,999.25
2018-09-12T13:00:29.389Z,999.27
2018-09-12T13:01:37.116Z,999.18
2018-09-12T13:02:44.353Z,999.18
2018-09-12T13:03:52.069Z,999.11
2018-09-12T13:04:59.794Z,999.12
2018-09-12T13:06:07.526Z,999.07
2018-09-12T13:07:15.225Z,999.06
2018-09-12T13:08:22.936Z,999.06
2018-09-12T13:09:30.666Z,998.99
2018-09-12T13:10:38.368Z,999.00
2018-09-12T13:11:46.590Z,999.00
2018-09-12T13:12:53.830Z,999.00
2018-09-12T13:14:01.552Z,998.88
2018-09-12T13:15:09.310Z,998.95
2018-09-12T13:16:17.037Z,998.94
2018-09-12T13:17:24.785Z,998.91
2018-09-12T13:18:33.694Z,998.91
2018-09-12T13:19:40.344Z,998.94
2018-09-12T13:20:48.049Z,998.93
2018-09-12T13:21:55.796Z,998.88
2018-09-12T13:23:03.564Z,998.85
2018-09-12T13:24:11.315Z,998.88
2018-09-12T13:25:19.099Z,998.83
2018-09-12T13:26:26.839Z,998.86
2018-09-12T13:27:34.591Z,998.86
2018-09-12T13:28:42.348Z,998.78